Time;durP1;ratioP1;P1;durP2;ratioP2;P2;SDS_P1;SDS_P2;PMS_P1;PMS_P2;Temp;Humidity;BMP_temperature;BMP_pressure;BME280_temperature;BME280_humidity;BME280_pressure;Samples;Min_cycle;Max_cycle;Signal;HPM_P1;HPM_P2
2023/04/08 00:00:17;;;;;;;12.27;10.47;;;10.40;99.90;;;;;;5029432;28;20327;-66
2023/04/08 00:02:43;;;;;;;11.63;9.97;;;10.10;99.90;;;;;;5032208;28;20221;-66
2023/04/08 00:05:08;;;;;;;12.67;10.53;;;10.40;99.90;;;;;;5027559;28;20201;-66
2023/04/08 00:07:35;;;;;;;13.57;10.57;;;10.40;99.90;;;;;;5027576;28;20676;-66
2023/04/08 00:10:00;;;;;;;12.50;10.35;;;10.40;99.90;;;;;;5024640;28;20701;-66
2023/04/08 00:12:26;;;;;;;12.23;10.07;;;10.20;99.90;;;;;;5025521;28;20216;-66
2023/04/08 00:14:52;;;;;;;10.87;9.73;;;10.50;99.90;;;;;;5023134;28;20198;-66
2023/04/08 00:17:17;;;;;;;10.93;9.23;;;10.20;99.90;;;;;;5026476;28;20225;-66
2023/04/08 00:19:43;;;;;;;12.07;10.00;;;10.40;99.90;;;;;;5026973;28;20548;-66
2023/04/08 00:22:10;;;;;;;11.07;9.80;;;10.40;99.90;;;;;;5026891;28;20210;-66
2023/04/08 00:24:36;;;;;;;12.10;10.18;;;10.30;99.90;;;;;;5025744;28;20196;-66
2023/04/08 00:27:02;;;;;;;11.33;9.87;;;10.40;99.90;;;;;;5021803;28;20199;-67
2023/04/08 00:29:28;;;;;;;11.73;10.40;;;10.30;99.90;;;;;;5028751;28;20453;-66
2023/04/08 00:31:53;;;;;;;11.38;10.20;;;10.30;99.90;;;;;;5027765;28;20470;-67
2023/04/08 00:34:19;;;;;;;11.73;10.30;;;10.20;99.90;;;;;;5025379;28;20196;-66
2023/04/08 00:36:46;;;;;;;11.75;9.90;;;10.10;99.90;;;;;;5021132;28;20211;-66
2023/04/08 00:39:13;;;;;;;13.35;10.57;;;9.90;99.90;;;;;;5025450;28;20557;-66
2023/04/08 00:41:38;;;;;;;13.35;10.80;;;9.90;99.90;;;;;;5026459;28;20695;-66
2023/04/08 00:44:04;;;;;;;11.43;10.10;;;9.90;99.90;;;;;;5028484;28;20270;-66
2023/04/08 00:46:34;;;;;;;12.83;10.80;;;10.00;99.90;;;;;;5027504;28;20183;-66
2023/04/08 00:49:01;;;;;;;11.25;9.95;;;10.00;99.90;;;;;;5027851;28;20184;-66
2023/04/08 00:51:28;;;;;;;10.35;9.25;;;10.00;99.90;;;;;;5025703;28;20297;-66
2023/04/08 00:53:54;;;;;;;13.55;10.55;;;10.20;99.90;;;;;;5026477;28;20196;-67
2023/04/08 00:56:21;;;;;;;12.00;9.93;;;9.80;99.90;;;;;;5025283;28;20204;-66
2023/04/08 00:58:47;;;;;;;12.65;10.00;;;9.80;99.90;;;;;;5025710;28;20554;-66
2023/04/08 01:01:35;;;;;;;12.30;10.67;;;9.90;99.90;;;;;;5025360;28;20234;-66
2023/04/08 01:04:51;;;;;;;13.85;11.45;;;9.80;99.90;;;;;;5023595;28;20747;-66
2023/04/08 01:07:26;;;;;;;11.75;10.57;;;10.10;99.90;;;;;;5024879;28;20676;-66
2023/04/08 01:09:55;;;;;;;11.60;10.40;;;10.10;99.90;;;;;;5021906;28;20462;-66
2023/04/08 01:12:26;;;;;;;11.00;9.90;;;9.80;99.90;;;;;;5026472;28;20208;-67
2023/04/08 01:15:00;;;;;;;11.85;10.52;;;10.10;99.90;;;;;;5025434;28;20188;-66
2023/04/08 01:17:27;;;;;;;11.25;9.50;;;10.10;99.90;;;;;;5024024;28;20216;-66
2023/04/08 01:19:56;;;;;;;12.27;10.57;;;10.00;99.90;;;;;;5019603;28;20184;-67
2023/04/08 01:22:42;;;;;;;12.50;11.07;;;10.00;99.90;;;;;;5026095;28;20704;-66
2023/04/08 01:25:15;;;;;;;11.65;10.13;;;10.00;99.90;;;;;;5026791;28;20189;-72
2023/04/08 01:27:42;;;;;;;12.75;11.18;;;9.90;99.90;;;;;;5027871;28;20192;-71
2023/04/08 01:30:09;;;;;;;10.65;9.50;;;10.00;99.90;;;;;;5028199;28;20247;-71
2023/04/08 01:32:36;;;;;;;11.20;9.80;;;9.90;99.90;;;;;;5024833;28;20234;-71
2023/04/08 01:35:02;;;;;;;11.50;10.30;;;9.90;99.90;;;;;;5026382;28;20192;-71
2023/04/08 01:37:30;;;;;;;9.80;8.63;;;10.00;99.90;;;;;;5028945;28;20215;-71
2023/04/08 01:39:57;;;;;;;13.38;11.05;;;9.80;99.90;;;;;;5031409;28;20189;-71
2023/04/08 01:42:26;;;;;;;9.45;8.35;;;9.90;99.90;;;;;;5029844;28;20869;-71
2023/04/08 01:44:55;;;;;;;11.55;9.88;;;9.80;99.90;;;;;;5029065;28;20188;-69
2023/04/08 01:47:22;;;;;;;12.07;10.15;;;9.60;99.90;;;;;;5026752;28;20195;-68
2023/04/08 01:49:49;;;;;;;12.60;10.30;;;9.70;99.90;;;;;;5030889;28;20183;-66
2023/04/08 01:52:17;;;;;;;11.98;10.60;;;9.40;99.90;;;;;;5028084;28;20230;-67
2023/04/08 01:54:43;;;;;;;11.70;9.65;;;9.50;99.90;;;;;;5026618;28;20274;-67
2023/04/08 01:57:13;;;;;;;11.03;9.83;;;9.80;99.90;;;;;;5026173;28;20302;-65
2023/04/08 01:59:39;;;;;;;11.18;10.00;;;9.70;99.90;;;;;;5028743;28;20257;-65
2023/04/08 02:02:07;;;;;;;13.90;10.95;;;9.60;99.90;;;;;;5027444;28;20684;-65
2023/04/08 02:04:34;;;;;;;12.05;10.52;;;9.60;99.90;;;;;;5028591;28;20199;-65
2023/04/08 02:07:01;;;;;;;12.55;10.68;;;10.00;99.90;;;;;;5029907;28;20546;-65
2023/04/08 02:09:27;;;;;;;12.43;10.52;;;9.80;99.90;;;;;;5028407;28;20192;-65
2023/04/08 02:11:52;;;;;;;13.10;11.57;;;9.70;99.90;;;;;;5027542;28;20219;-65
2023/04/08 02:14:18;;;;;;;12.23;10.80;;;9.60;99.90;;;;;;5028888;28;20577;-65
2023/04/08 02:17:00;;;;;;;11.87;10.40;;;9.60;99.90;;;;;;5030463;28;20215;-65
2023/04/08 02:19:35;;;;;;;11.52;10.32;;;9.50;99.90;;;;;;5022988;28;20206;-65
2023/04/08 02:22:08;;;;;;;13.15;11.23;;;9.50;99.90;;;;;;5029050;28;20554;-65
2023/04/08 02:24:35;;;;;;;14.00;11.15;;;9.60;99.90;;;;;;5027002;28;20186;-65
2023/04/08 02:27:03;;;;;;;13.32;11.60;;;9.60;99.90;;;;;;5028778;28;20192;-65
2023/04/08 02:29:30;;;;;;;13.63;11.70;;;9.60;99.90;;;;;;5028122;28;20199;-65
2023/04/08 02:31:57;;;;;;;13.13;11.25;;;9.40;99.90;;;;;;5029276;28;20294;-65
2023/04/08 02:34:24;;;;;;;12.82;11.32;;;9.40;99.90;;;;;;5030195;28;20632;-65
2023/04/08 02:36:50;;;;;;;14.55;11.77;;;9.40;99.90;;;;;;5025958;28;20554;-65
2023/04/08 02:39:16;;;;;;;12.95;11.65;;;9.70;99.90;;;;;;5029384;28;20247;-65
2023/04/08 02:41:42;;;;;;;12.38;11.07;;;9.40;99.90;;;;;;5029019;28;20208;-65
2023/04/08 02:44:08;;;;;;;13.17;11.20;;;9.60;99.90;;;;;;5030388;28;20267;-65
2023/04/08 02:46:34;;;;;;;13.60;11.07;;;9.70;99.90;;;;;;5030102;28;20195;-65
2023/04/08 02:49:00;;;;;;;15.30;12.53;;;9.90;99.90;;;;;;5029885;28;20593;-65
2023/04/08 02:51:26;;;;;;;12.90;11.40;;;9.50;99.90;;;;;;5026306;28;20228;-65
2023/04/08 02:53:52;;;;;;;14.98;11.75;;;9.60;99.90;;;;;;5025792;28;20185;-65
2023/04/08 02:56:18;;;;;;;15.52;11.38;;;9.50;99.90;;;;;;5028832;28;20680;-65
2023/04/08 02:58:44;;;;;;;14.43;12.07;;;9.40;99.90;;;;;;5026837;28;20179;-65
2023/04/08 03:01:10;;;;;;;15.40;13.30;;;8.90;99.90;;;;;;5025155;28;20469;-65
2023/04/08 03:03:36;;;;;;;13.57;11.30;;;9.60;99.90;;;;;;5029323;28;20441;-65
2023/04/08 03:06:02;;;;;;;15.20;12.27;;;9.70;99.90;;;;;;5026198;28;20450;-65
2023/04/08 03:08:27;;;;;;;17.73;13.02;;;9.50;99.90;;;;;;5029587;28;20442;-65
2023/04/08 03:10:53;;;;;;;15.20;12.43;;;9.70;99.90;;;;;;5030417;28;20534;-65
2023/04/08 03:13:19;;;;;;;16.33;12.97;;;9.50;99.90;;;;;;5026827;28;20625;-65
2023/04/08 03:15:45;;;;;;;16.93;12.63;;;9.40;99.90;;;;;;5028769;28;20294;-65
2023/04/08 03:18:11;;;;;;;16.45;11.70;;;9.30;99.90;;;;;;5027176;28;20208;-64
2023/04/08 03:20:36;;;;;;;15.87;12.60;;;9.30;99.90;;;;;;5027835;28;20184;-65
2023/04/08 03:23:02;;;;;;;15.37;12.20;;;9.50;99.90;;;;;;5029640;28;20826;-65
2023/04/08 03:25:28;;;;;;;14.83;11.73;;;9.10;99.90;;;;;;5029830;28;20237;-65
2023/04/08 03:27:54;;;;;;;14.97;10.73;;;9.50;99.90;;;;;;5029640;28;20245;-65
2023/04/08 03:30:20;;;;;;;15.27;12.18;;;9.30;99.90;;;;;;5028912;28;20188;-65
2023/04/08 03:32:46;;;;;;;16.63;12.20;;;9.10;99.90;;;;;;5028124;28;20207;-65
2023/04/08 03:35:11;;;;;;;13.73;10.70;;;9.40;99.90;;;;;;5027537;28;20731;-64
2023/04/08 03:37:37;;;;;;;16.40;12.27;;;9.40;99.90;;;;;;5028450;28;20336;-65
2023/04/08 03:40:03;;;;;;;13.90;11.00;;;9.30;99.90;;;;;;5027467;28;20234;-65
2023/04/08 03:42:29;;;;;;;16.65;11.13;;;9.30;99.90;;;;;;5028177;28;20207;-65
2023/04/08 03:44:55;;;;;;;14.67;11.73;;;9.60;99.90;;;;;;5025510;28;20185;-65
2023/04/08 03:47:20;;;;;;;13.40;11.10;;;9.30;99.90;;;;;;5026030;28;20201;-65
2023/04/08 03:49:46;;;;;;;15.03;11.97;;;9.30;99.90;;;;;;5026204;28;20196;-65
2023/04/08 03:52:11;;;;;;;14.60;11.30;;;9.40;99.90;;;;;;5027370;28;20222;-65
2023/04/08 03:54:37;;;;;;;16.67;12.00;;;9.60;99.90;;;;;;5031077;28;20191;-65
2023/04/08 03:57:03;;;;;;;16.27;11.70;;;9.60;99.90;;;;;;5026886;28;20265;-65
2023/04/08 03:59:28;;;;;;;12.70;10.10;;;9.60;99.90;;;;;;5028545;28;20251;-65
2023/04/08 04:01:55;;;;;;;14.03;10.97;;;9.40;99.90;;;;;;5023246;28;20197;-65
2023/04/08 04:04:20;;;;;;;16.48;11.32;;;9.60;99.90;;;;;;5028367;28;20184;-65
2023/04/08 04:06:46;;;;;;;13.50;10.80;;;9.40;99.90;;;;;;5026776;28;20624;-65
2023/04/08 04:09:12;;;;;;;13.03;11.03;;;9.60;99.90;;;;;;5028461;28;20250;-65
2023/04/08 04:11:37;;;;;;;14.10;11.10;;;9.60;99.90;;;;;;5026216;28;20200;-65
2023/04/08 04:14:03;;;;;;;13.97;10.10;;;9.60;99.90;;;;;;5027509;28;20445;-65
2023/04/08 04:16:29;;;;;;;13.70;10.43;;;9.60;99.90;;;;;;5030026;28;20264;-65
2023/04/08 04:18:54;;;;;;;12.80;10.73;;;9.60;99.90;;;;;;5028823;28;20214;-65
2023/04/08 04:21:20;;;;;;;15.70;11.30;;;9.50;99.90;;;;;;5020294;28;20418;-65
2023/04/08 04:23:46;;;;;;;15.17;10.40;;;9.60;99.90;;;;;;5028368;28;20188;-65
2023/04/08 04:26:11;;;;;;;15.77;11.70;;;9.50;99.90;;;;;;5028049;28;20273;-65
2023/04/08 04:28:37;;;;;;;14.13;11.30;;;9.50;99.90;;;;;;5027286;28;20249;-65
2023/04/08 04:31:03;;;;;;;14.77;12.00;;;9.60;99.90;;;;;;5022268;28;20199;-66
2023/04/08 04:33:30;;;;;;;15.57;12.82;;;9.40;99.90;;;;;;5028373;28;20412;-65
2023/04/08 04:35:55;;;;;;;13.45;11.75;;;9.30;99.90;;;;;;5027773;28;20210;-65
2023/04/08 04:38:21;;;;;;;16.50;12.47;;;9.20;99.90;;;;;;5024372;28;20182;-65
2023/04/08 04:40:47;;;;;;;13.83;11.73;;;9.20;99.90;;;;;;5027679;28;20704;-65
2023/04/08 04:43:12;;;;;;;17.67;13.93;;;9.10;99.90;;;;;;5026631;28;20214;-65
2023/04/08 04:45:38;;;;;;;20.20;12.73;;;9.40;99.90;;;;;;5027474;28;20203;-65
2023/04/08 04:48:04;;;;;;;16.20;12.20;;;9.20;99.90;;;;;;5023433;28;20686;-65
2023/04/08 04:50:30;;;;;;;18.17;14.23;;;9.10;99.90;;;;;;5023836;28;20191;-65
2023/04/08 04:52:55;;;;;;;20.33;14.63;;;8.70;99.90;;;;;;5030748;28;20572;-66
2023/04/08 04:55:21;;;;;;;19.17;13.00;;;8.80;99.90;;;;;;5027090;28;20446;-66
2023/04/08 04:57:47;;;;;;;15.90;12.33;;;8.80;99.90;;;;;;5019454;28;20225;-65
2023/04/08 05:00:14;;;;;;;16.13;13.20;;;8.80;99.90;;;;;;5028410;28;20178;-65
2023/04/08 05:02:40;;;;;;;17.90;13.43;;;8.90;99.90;;;;;;5023241;28;20207;-65
2023/04/08 05:05:06;;;;;;;16.47;13.43;;;8.70;99.90;;;;;;5031097;28;20213;-65
2023/04/08 05:07:35;;;;;;;19.40;15.30;;;8.60;99.90;;;;;;5026182;28;20190;-63
2023/04/08 05:10:02;;;;;;;17.60;14.30;;;8.70;99.90;;;;;;5027377;28;20207;-65
2023/04/08 05:12:28;;;;;;;19.88;14.52;;;8.60;99.90;;;;;;5028687;28;20294;-63
2023/04/08 05:14:53;;;;;;;20.13;14.67;;;8.60;99.90;;;;;;5030345;28;20273;-65
2023/04/08 05:17:19;;;;;;;18.73;15.13;;;8.60;99.90;;;;;;5028091;28;20199;-65
2023/04/08 05:19:44;;;;;;;19.67;14.17;;;8.90;99.90;;;;;;5028196;28;20269;-65
2023/04/08 05:22:10;;;;;;;20.60;15.60;;;8.70;99.90;;;;;;5025508;28;20207;-65
2023/04/08 05:24:36;;;;;;;14.93;13.30;;;9.00;99.90;;;;;;5028821;28;20802;-65
2023/04/08 05:27:01;;;;;;;17.53;14.43;;;9.00;99.90;;;;;;5030078;28;20195;-64
2023/04/08 05:29:27;;;;;;;20.47;14.80;;;9.10;99.90;;;;;;5028403;28;20273;-64
2023/04/08 05:31:53;;;;;;;18.77;14.63;;;8.90;99.90;;;;;;5030944;28;20309;-64
2023/04/08 05:34:21;;;;;;;16.83;14.27;;;9.00;99.90;;;;;;5030184;28;20191;-66
2023/04/08 05:36:50;;;;;;;16.52;13.90;;;9.50;99.90;;;;;;5028005;28;20453;-64
2023/04/08 05:39:17;;;;;;;17.60;14.13;;;9.30;99.90;;;;;;5025384;28;20222;-63
2023/04/08 05:41:43;;;;;;;17.38;14.70;;;9.10;99.90;;;;;;5028986;28;20215;-63
2023/04/08 05:44:09;;;;;;;15.93;13.65;;;9.30;99.90;;;;;;5028395;28;20182;-64
2023/04/08 05:46:35;;;;;;;19.83;14.83;;;9.50;99.90;;;;;;5028527;28;20672;-64
2023/04/08 05:49:00;;;;;;;20.10;15.20;;;9.10;99.90;;;;;;5029343;28;20977;-64
2023/04/08 05:51:26;;;;;;;19.50;14.57;;;8.90;99.90;;;;;;5027838;28;20249;-64
2023/04/08 05:53:51;;;;;;;20.37;16.30;;;9.10;99.90;;;;;;5029467;28;20665;-65
2023/04/08 05:56:17;;;;;;;17.80;14.77;;;9.00;99.90;;;;;;5025522;28;20753;-64
2023/04/08 05:58:43;;;;;;;17.67;15.50;;;9.60;99.90;;;;;;5029174;28;20179;-64
2023/04/08 06:01:08;;;;;;;17.50;14.70;;;9.00;99.90;;;;;;5027486;28;20181;-64
2023/04/08 06:03:34;;;;;;;18.47;15.33;;;9.20;99.90;;;;;;5025495;28;20573;-64
2023/04/08 06:06:00;;;;;;;18.37;15.80;;;8.90;99.90;;;;;;5026397;28;20211;-64
2023/04/08 06:08:25;;;;;;;17.40;14.73;;;9.40;99.90;;;;;;5022769;28;20198;-71
2023/04/08 06:10:51;;;;;;;15.50;13.83;;;9.10;99.90;;;;;;5025571;28;20184;-67
2023/04/08 06:13:19;;;;;;;20.10;15.70;;;9.20;99.90;;;;;;5027788;28;20294;-68
2023/04/08 06:15:44;;;;;;;19.48;14.82;;;9.60;99.90;;;;;;5028678;28;20314;-70
2023/04/08 06:18:10;;;;;;;18.17;15.53;;;9.80;99.90;;;;;;5030210;28;20650;-69
2023/04/08 06:20:36;;;;;;;17.53;14.30;;;9.30;99.90;;;;;;5029037;28;20180;-70
2023/04/08 06:23:01;;;;;;;15.40;13.80;;;9.60;99.90;;;;;;5028600;28;20264;-69
2023/04/08 06:25:27;;;;;;;15.60;13.20;;;9.60;99.90;;;;;;5029383;28;20187;-66
2023/04/08 06:27:53;;;;;;;18.17;15.30;;;9.50;99.90;;;;;;5026296;28;21088;-66
2023/04/08 06:30:18;;;;;;;18.07;15.17;;;9.70;99.90;;;;;;5027477;28;20208;-66
2023/04/08 06:32:46;;;;;;;17.90;14.90;;;9.90;99.90;;;;;;5029901;28;20257;-71
2023/04/08 06:35:12;;;;;;;16.88;13.65;;;9.60;99.90;;;;;;5029284;28;20254;-72
2023/04/08 06:37:37;;;;;;;15.75;13.48;;;9.80;99.90;;;;;;5028771;28;20250;-67
2023/04/08 06:40:06;;;;;;;17.37;14.13;;;9.90;99.90;;;;;;5028133;28;20223;-67
2023/04/08 06:42:32;;;;;;;16.05;13.45;;;9.90;99.90;;;;;;5028567;28;20239;-64
2023/04/08 06:44:58;;;;;;;17.33;13.77;;;10.00;99.90;;;;;;5028305;28;20220;-64
2023/04/08 06:47:24;;;;;;;16.93;13.57;;;9.80;99.90;;;;;;5027051;28;20188;-64
2023/04/08 06:49:49;;;;;;;14.57;12.15;;;10.10;99.90;;;;;;5023787;28;20184;-66
2023/04/08 06:52:15;;;;;;;15.17;13.30;;;9.90;99.90;;;;;;5027200;28;20586;-64
2023/04/08 06:54:42;;;;;;;16.05;12.73;;;10.00;99.90;;;;;;5029733;28;20196;-64
2023/04/08 06:57:07;;;;;;;15.40;12.35;;;10.00;99.90;;;;;;5026981;28;20312;-64
2023/04/08 06:59:33;;;;;;;13.50;11.60;;;9.90;99.90;;;;;;5030685;28;20265;-64
2023/04/08 07:01:59;;;;;;;14.10;11.90;;;10.00;99.90;;;;;;5028915;28;20436;-64
2023/04/08 07:04:25;;;;;;;13.50;11.80;;;9.40;99.90;;;;;;5026394;28;20184;-64
2023/04/08 07:06:51;;;;;;;13.50;11.98;;;9.70;99.90;;;;;;5028106;28;20184;-65
2023/04/08 07:09:16;;;;;;;15.60;12.73;;;9.70;99.90;;;;;;5027149;28;20289;-65
2023/04/08 07:11:42;;;;;;;15.83;12.73;;;9.80;99.90;;;;;;5027072;28;20215;-64
2023/04/08 07:14:08;;;;;;;15.70;12.60;;;9.60;99.90;;;;;;5029047;28;20248;-64
2023/04/08 07:16:33;;;;;;;18.40;14.00;;;10.00;99.90;;;;;;5026832;28;20294;-64
2023/04/08 07:18:59;;;;;;;17.13;12.33;;;9.80;99.90;;;;;;5027525;28;20552;-64
2023/04/08 07:21:24;;;;;;;15.67;12.07;;;9.70;99.90;;;;;;5023512;28;20227;-64
2023/04/08 07:23:50;;;;;;;14.40;12.07;;;9.60;99.90;;;;;;5026760;28;20602;-64
2023/04/08 07:26:15;;;;;;;18.13;13.23;;;9.80;99.90;;;;;;5022553;28;20188;-64
2023/04/08 07:28:41;;;;;;;16.63;13.80;;;10.00;99.90;;;;;;5026494;28;20195;-64
2023/04/08 07:31:17;;;;;;;17.77;12.40;;;9.80;99.90;;;;;;5023752;28;20196;-63
2023/04/08 07:33:44;;;;;;;13.98;11.57;;;10.20;99.90;;;;;;5024974;28;20614;-64
2023/04/08 07:36:10;;;;;;;12.90;11.20;;;10.10;99.90;;;;;;5025662;28;20582;-65
2023/04/08 07:38:37;;;;;;;16.92;13.35;;;10.30;99.90;;;;;;5025716;28;20184;-64
2023/04/08 07:41:03;;;;;;;13.18;11.80;;;;;;;;;;5026694;28;20603;-69
2023/04/08 07:43:31;;;;;;;15.15;12.18;;;10.00;99.90;;;;;;5024462;28;20268;-70
2023/04/08 07:46:03;;;;;;;14.45;11.50;;;10.20;99.90;;;;;;5026704;28;20196;-69
2023/04/08 07:48:33;;;;;;;13.30;11.13;;;10.20;99.90;;;;;;5025385;28;20193;-68
2023/04/08 07:51:06;;;;;;;11.45;9.80;;;10.60;99.90;;;;;;5023055;28;20193;-67
2023/04/08 07:53:33;;;;;;;16.02;13.13;;;10.70;99.90;;;;;;5023740;28;20250;-66
2023/04/08 07:55:59;;;;;;;11.43;10.18;;;11.20;99.90;;;;;;5024408;28;20207;-64
2023/04/08 07:58:25;;;;;;;13.05;11.20;;;11.20;99.90;;;;;;5024423;28;20189;-66
2023/04/08 08:00:51;;;;;;;13.60;12.20;;;11.60;99.90;;;;;;5026835;28;20677;-66
2023/04/08 08:03:17;;;;;;;11.43;10.33;;;11.60;99.90;;;;;;5027012;28;20206;-69
2023/04/08 08:05:42;;;;;;;23.23;17.13;;;11.50;99.90;;;;;;5026466;28;20500;-67
2023/04/08 08:08:10;;;;;;;14.40;12.27;;;11.40;99.90;;;;;;5025933;28;20968;-68
2023/04/08 08:10:37;;;;;;;13.13;11.27;;;11.40;99.90;;;;;;5024941;28;20616;-68
2023/04/08 08:13:04;;;;;;;11.57;10.45;;;11.80;99.90;;;;;;5022268;28;20805;-67
2023/04/08 08:15:30;;;;;;;13.43;11.73;;;12.00;99.90;;;;;;5026782;28;20228;-62
2023/04/08 08:17:55;;;;;;;12.60;11.30;;;12.20;99.90;;;;;;5022524;28;20182;-62
2023/04/08 08:20:21;;;;;;;12.23;11.00;;;12.20;99.90;;;;;;5023412;28;20594;-64
2023/04/08 08:22:46;;;;;;;12.17;11.00;;;12.30;99.90;;;;;;5024838;28;20209;-68
2023/04/08 08:25:12;;;;;;;12.03;10.70;;;12.20;99.90;;;;;;5025287;28;20201;-69
2023/04/08 08:27:40;;;;;;;13.07;10.40;;;12.40;99.90;;;;;;5024800;28;20194;-68
2023/04/08 08:30:08;;;;;;;11.57;10.38;;;12.20;99.90;;;;;;5027627;28;20547;-69
2023/04/08 08:32:34;;;;;;;11.65;10.55;;;12.50;99.90;;;;;;5026496;28;20206;-69
2023/04/08 08:35:00;;;;;;;12.63;11.35;;;12.40;99.90;;;;;;5024350;28;20186;-68
2023/04/08 08:37:26;;;;;;;11.52;10.35;;;12.30;99.90;;;;;;5023138;28;20210;-67
2023/04/08 08:39:52;;;;;;;11.93;10.03;;;12.00;99.90;;;;;;5025292;28;20231;-68
2023/04/08 08:42:21;;;;;;;14.13;12.40;;;11.90;99.90;;;;;;5022415;28;20280;-67
2023/04/08 08:44:47;;;;;;;13.05;10.77;;;12.10;99.90;;;;;;5025176;28;20228;-67
2023/04/08 08:47:14;;;;;;;12.88;10.98;;;12.10;99.90;;;;;;5026058;28;20186;-67
2023/04/08 08:49:40;;;;;;;12.02;10.82;;;12.60;99.90;;;;;;5026796;28;20228;-68
2023/04/08 08:52:06;;;;;;;12.15;10.85;;;12.50;99.90;;;;;;5026318;28;20209;-68
2023/04/08 08:54:32;;;;;;;12.30;11.20;;;12.50;99.90;;;;;;5026469;28;20186;-68
2023/04/08 08:56:58;;;;;;;11.10;10.00;;;13.40;99.90;;;;;;5025038;28;20516;-68
2023/04/08 08:59:23;;;;;;;12.77;11.40;;;14.00;97.70;;;;;;5019648;28;20540;-67
2023/04/08 09:01:49;;;;;;;12.67;11.10;;;14.50;96.60;;;;;;5018794;28;20234;-67
2023/04/08 09:04:19;;;;;;;11.70;10.47;;;15.00;96.00;;;;;;5027686;28;20197;-67
2023/04/08 09:07:09;;;;;;;12.50;11.30;;;15.30;95.20;;;;;;5024565;28;20178;-68
2023/04/08 09:09:51;;;;;;;12.13;10.98;;;15.40;94.60;;;;;;5021940;28;20225;-68
2023/04/08 09:12:17;;;;;;;12.48;11.20;;;15.40;93.70;;;;;;5022436;28;20206;-67
2023/04/08 09:14:43;;;;;;;12.60;11.20;;;15.30;93.50;;;;;;5027188;28;20204;-67
2023/04/08 09:17:09;;;;;;;12.50;11.30;;;14.80;94.20;;;;;;5023587;28;20205;-67
2023/04/08 09:19:34;;;;;;;13.00;11.73;;;14.90;94.00;;;;;;5025925;28;20600;-66
2023/04/08 09:22:10;;;;;;;12.10;11.00;;;15.20;92.60;;;;;;5025876;28;20865;-69
2023/04/08 09:24:36;;;;;;;11.45;10.35;;;15.40;92.30;;;;;;5026263;28;20205;-66
2023/04/08 09:27:05;;;;;;;12.23;11.02;;;15.50;91.50;;;;;;5023613;28;20201;-66
2023/04/08 09:29:31;;;;;;;12.10;10.80;;;15.60;90.50;;;;;;5026468;28;20190;-66
2023/04/08 09:31:58;;;;;;;13.63;11.90;;;15.70;90.60;;;;;;5024061;28;20214;-66
2023/04/08 09:34:26;;;;;;;11.30;10.20;;;14.90;90.80;;;;;;5024043;28;20183;-66
2023/04/08 09:36:53;;;;;;;12.10;11.00;;;15.20;91.00;;;;;;5025592;28;20209;-66
2023/04/08 09:39:27;;;;;;;12.60;11.50;;;15.30;91.60;;;;;;5026335;28;20182;-66
2023/04/08 09:41:57;;;;;;;12.02;10.70;;;15.50;92.00;;;;;;5021348;28;20683;-66
2023/04/08 09:44:27;;;;;;;11.75;10.73;;;15.60;90.50;;;;;;5026148;28;20182;-66
2023/04/08 09:47:06;;;;;;;12.80;11.48;;;15.30;90.10;;;;;;5025628;28;20191;-67
2023/04/08 09:49:42;;;;;;;12.55;11.38;;;15.10;90.40;;;;;;5023837;28;20690;-67
2023/04/08 09:52:15;;;;;;;12.68;11.38;;;15.00;90.00;;;;;;5027452;28;20226;-67
2023/04/08 09:54:49;;;;;;;12.05;10.95;;;15.30;88.50;;;;;;5028187;28;20174;-67
2023/04/08 09:57:36;;;;;;;12.40;11.18;;;15.70;86.60;;;;;;5029261;28;20294;-67
2023/04/08 10:00:08;;;;;;;12.18;11.07;;;15.60;83.00;;;;;;5030129;28;20291;-67
2023/04/08 10:02:43;;;;;;;12.02;10.93;;;15.80;83.20;;;;;;5028439;28;20267;-68
2023/04/08 10:05:13;;;;;;;11.93;10.77;;;15.80;81.70;;;;;;5028214;28;20190;-67
2023/04/08 10:07:40;;;;;;;12.32;11.18;;;15.90;79.40;;;;;;5029635;28;20731;-67
2023/04/08 10:10:08;;;;;;;11.80;10.30;;;16.50;78.00;;;;;;5029195;28;20632;-67
2023/04/08 10:12:35;;;;;;;13.05;11.85;;;16.80;76.00;;;;;;5028057;28;20202;-67
2023/04/08 10:15:25;;;;;;;12.73;11.48;;;16.90;74.80;;;;;;5030052;28;20202;-67
2023/04/08 10:18:17;;;;;;;13.70;11.23;;;16.60;75.60;;;;;;5026358;28;20212;-67
2023/04/08 10:20:45;;;;;;;12.05;10.88;;;16.40;76.90;;;;;;5024783;28;20201;-67
2023/04/08 10:23:49;;;;;;;11.98;10.85;;;16.20;77.60;;;;;;5028057;28;20679;-66
2023/04/08 10:26:36;;;;;;;12.80;11.50;;;15.70;77.20;;;;;;5026293;28;20200;-67
2023/04/08 10:29:17;;;;;;;12.75;11.43;;;15.80;80.90;;;;;;5027145;28;20679;-67
2023/04/08 10:31:48;;;;;;;12.93;11.77;;;15.10;79.70;;;;;;5026672;28;20218;-66
2023/04/08 10:34:18;;;;;;;13.07;11.70;;;14.80;79.00;;;;;;5027421;28;20221;-67
2023/04/08 10:36:45;;;;;;;12.90;11.70;;;14.60;80.40;;;;;;5026039;28;20676;-67
2023/04/08 10:39:12;;;;;;;12.82;11.55;;;14.30;80.50;;;;;;5028553;28;20186;-65
2023/04/08 10:41:42;;;;;;;11.70;10.65;;;14.60;81.70;;;;;;5024017;28;20199;-65
2023/04/08 10:44:24;;;;;;;13.63;11.77;;;14.50;82.80;;;;;;5026761;28;20241;-66
2023/04/08 10:46:50;;;;;;;11.30;10.25;;;14.30;81.70;;;;;;5027660;28;20288;-66
2023/04/08 10:49:17;;;;;;;12.80;11.55;;;14.40;83.00;;;;;;5030022;28;20669;-65
2023/04/08 10:51:43;;;;;;;15.43;12.63;;;13.90;83.20;;;;;;5029191;28;20662;-66
2023/04/08 10:54:11;;;;;;;12.80;11.60;;;14.00;84.40;;;;;;5025104;28;20198;-66
2023/04/08 10:56:52;;;;;;;12.02;11.00;;;14.00;83.00;;;;;;5028557;28;20199;-66
2023/04/08 10:59:28;;;;;;;12.93;11.65;;;13.70;81.50;;;;;;5028375;28;20189;-66
2023/04/08 11:01:54;;;;;;;11.98;10.88;;;13.60;82.50;;;;;;5027970;28;20289;-66
2023/04/08 11:04:22;;;;;;;12.57;11.40;;;13.50;82.70;;;;;;5024850;28;20261;-66
2023/04/08 11:06:48;;;;;;;12.10;10.90;;;13.70;83.00;;;;;;5023320;28;20875;-66
2023/04/08 11:09:15;;;;;;;13.52;12.10;;;13.50;83.30;;;;;;5026396;28;20226;-66
2023/04/08 11:11:42;;;;;;;13.85;12.55;;;13.60;84.70;;;;;;5021691;28;20210;-66
2023/04/08 11:14:08;;;;;;;12.07;10.88;;;13.60;83.60;;;;;;5028947;28;20204;-66
2023/04/08 11:16:34;;;;;;;12.33;11.03;;;13.20;83.80;;;;;;5025411;28;20596;-66
2023/04/08 11:19:03;;;;;;;12.48;11.18;;;13.50;83.50;;;;;;5028159;28;20449;-66
2023/04/08 11:21:30;;;;;;;13.40;12.10;;;13.50;82.50;;;;;;5027939;28;20683;-66
2023/04/08 11:23:56;;;;;;;13.02;11.52;;;13.70;82.60;;;;;;5027080;28;20193;-66
2023/04/08 11:26:23;;;;;;;12.90;11.52;;;13.80;81.40;;;;;;5027190;28;20213;-66
2023/04/08 11:28:50;;;;;;;14.07;12.10;;;14.10;80.60;;;;;;5027368;28;20190;-66
2023/04/08 11:31:17;;;;;;;12.48;11.25;;;14.40;81.40;;;;;;5028607;28;20189;-66
2023/04/08 11:33:50;;;;;;;13.85;12.50;;;14.20;81.30;;;;;;5023540;28;20699;-67
2023/04/08 11:36:17;;;;;;;12.20;11.00;;;14.30;81.20;;;;;;5021209;28;20692;-66
2023/04/08 11:38:43;;;;;;;12.25;11.10;;;14.30;80.20;;;;;;5022780;28;20186;-65
2023/04/08 11:41:10;;;;;;;12.13;11.00;;;14.30;79.90;;;;;;5023155;28;20210;-66
2023/04/08 11:43:39;;;;;;;12.95;11.68;;;14.30;81.10;;;;;;5025931;28;20190;-66
2023/04/08 11:46:10;;;;;;;11.73;10.60;;;14.10;81.00;;;;;;5023153;28;20265;-66
2023/04/08 11:48:37;;;;;;;12.02;10.82;;;14.10;81.30;;;;;;5027482;28;20186;-66
2023/04/08 11:51:11;;;;;;;11.95;10.85;;;14.00;80.20;;;;;;5025128;28;20202;-65
2023/04/08 11:53:37;;;;;;;12.27;11.10;;;13.90;79.40;;;;;;5025930;28;20660;-66
2023/04/08 11:56:20;;;;;;;13.32;12.10;;;13.70;80.00;;;;;;5027273;28;20217;-66
2023/04/08 11:58:46;;;;;;;12.02;10.82;;;13.10;80.40;;;;;;5027366;28;20226;-65
2023/04/08 12:01:13;;;;;;;14.53;11.33;;;13.50;82.50;;;;;;5022634;28;20211;-66
2023/04/08 12:03:38;;;;;;;13.70;11.80;;;13.60;81.90;;;;;;5027077;28;20186;-66
2023/04/08 12:06:06;;;;;;;14.20;12.70;;;13.90;82.00;;;;;;5023565;28;20683;-66
2023/04/08 12:08:31;;;;;;;13.82;11.57;;;13.90;81.70;;;;;;5023240;28;20240;-66
2023/04/08 12:10:57;;;;;;;14.50;13.10;;;13.60;81.00;;;;;;5024127;28;20198;-66
2023/04/08 12:13:23;;;;;;;13.97;12.57;;;13.80;81.70;;;;;;5023390;28;20218;-66
2023/04/08 12:15:48;;;;;;;14.30;12.60;;;13.50;82.70;;;;;;5026697;28;20271;-66
2023/04/08 12:18:15;;;;;;;13.90;12.50;;;13.30;82.90;;;;;;5021148;28;20193;-66
2023/04/08 12:20:40;;;;;;;12.48;11.35;;;13.60;85.20;;;;;;5025384;28;20248;-66
2023/04/08 12:23:06;;;;;;;12.93;11.63;;;13.40;87.60;;;;;;5026737;28;20241;-66
2023/04/08 12:25:32;;;;;;;12.70;11.48;;;13.50;87.40;;;;;;5024543;28;20190;-66
2023/04/08 12:27:58;;;;;;;12.37;11.03;;;13.30;85.30;;;;;;5024393;28;20182;-65
2023/04/08 12:30:23;;;;;;;13.80;12.50;;;13.30;84.40;;;;;;5026842;28;20619;-66
2023/04/08 12:32:49;;;;;;;12.60;11.30;;;13.30;84.80;;;;;;5024124;28;20217;-66
2023/04/08 12:35:15;;;;;;;11.43;10.30;;;13.70;84.70;;;;;;5024161;28;20726;-67